createdAt,value
2023-02-12T00:01:29.594Z,8.97
2023-02-12T00:03:58.642Z,9.63
2023-02-12T00:06:27.321Z,9.73
2023-02-12T00:08:57.500Z,9.30
2023-02-12T00:11:28.047Z,8.13
2023-02-12T00:13:58.612Z,10.37
2023-02-12T00:16:29.630Z,9.63
2023-02-12T00:18:59.406Z,10.57
2023-02-12T00:21:28.507Z,10.27
2023-02-12T00:23:57.713Z,9.30
2023-02-12T00:26:26.490Z,10.03
2023-02-12T00:28:55.782Z,10.23
2023-02-12T00:31:26.983Z,10.10
2023-02-12T00:34:01.841Z,10.90
2023-02-12T00:36:32.522Z,10.43
2023-02-12T00:39:01.999Z,10.30
2023-02-12T00:41:30.594Z,11.00
2023-02-12T00:43:59.231Z,10.40
2023-02-12T00:46:28.602Z,10.30
2023-02-12T00:48:57.242Z,10.33
2023-02-12T00:51:27.382Z,10.30
2023-02-12T00:53:55.877Z,12.77
2023-02-12T00:56:24.333Z,11.03
2023-02-12T00:58:52.912Z,11.50
2023-02-12T01:01:21.597Z,11.80
2023-02-12T01:03:50.189Z,11.63
2023-02-12T01:06:18.901Z,10.57
2023-02-12T01:08:53.088Z,10.87
2023-02-12T01:11:21.996Z,11.63
2023-02-12T01:13:50.582Z,10.63
2023-02-12T01:16:22.050Z,11.67
2023-02-12T01:18:55.167Z,12.30
2023-02-12T01:21:26.846Z,11.47
2023-02-12T01:23:58.596Z,11.53
2023-02-12T01:26:28.148Z,12.73
2023-02-12T01:28:58.622Z,11.80
2023-02-12T01:31:30.806Z,11.30
2023-02-12T01:34:01.186Z,11.80
2023-02-12T01:36:31.823Z,12.10
2023-02-12T01:39:03.647Z,12.20
2023-02-12T01:41:34.205Z,11.93
2023-02-12T01:44:15.544Z,12.53
2023-02-12T01:46:46.015Z,12.17
2023-02-12T01:49:19.961Z,11.17
2023-02-12T01:51:52.970Z,13.27
2023-02-12T01:54:26.747Z,13.67
2023-02-12T01:56:56.036Z,13.63
2023-02-12T01:59:26.133Z,12.13
2023-02-12T02:01:56.428Z,12.20
2023-02-12T02:04:28.668Z,12.03
2023-02-12T02:06:59.653Z,12.43
2023-02-12T02:09:30.878Z,12.27
2023-02-12T02:12:22.302Z,12.33
2023-02-12T02:14:53.014Z,11.47
2023-02-12T02:17:45.799Z,12.50
2023-02-12T02:20:43.911Z,13.03
2023-02-12T02:23:53.261Z,12.53
2023-02-12T02:26:42.684Z,12.57
2023-02-12T02:29:38.173Z,12.90
2023-02-12T02:32:11.345Z,13.07
2023-02-12T02:34:43.933Z,12.07
2023-02-12T02:37:19.576Z,11.73
2023-02-12T02:39:53.068Z,14.70
2023-02-12T02:42:28.726Z,12.50
2023-02-12T02:45:01.153Z,13.67
2023-02-12T02:47:35.102Z,12.80
2023-02-12T02:50:07.170Z,13.23
2023-02-12T02:52:40.179Z,12.27
2023-02-12T02:55:12.456Z,13.10
2023-02-12T02:57:46.889Z,12.53
2023-02-12T03:00:20.118Z,14.47
2023-02-12T03:02:56.334Z,12.47
2023-02-12T03:05:30.175Z,12.30
2023-02-12T03:08:04.330Z,12.67
2023-02-12T03:10:37.108Z,12.20
2023-02-12T03:13:10.502Z,13.00
2023-02-12T03:15:43.802Z,11.87
2023-02-12T03:18:20.470Z,12.30
2023-02-12T03:20:53.149Z,12.60
2023-02-12T03:23:26.476Z,12.50
2023-02-12T03:25:59.297Z,12.13
2023-02-12T03:28:32.545Z,13.20
2023-02-12T03:31:09.198Z,12.93
2023-02-12T03:33:50.935Z,12.20
2023-02-12T03:36:27.574Z,13.40
2023-02-12T03:38:58.780Z,13.43
2023-02-12T03:41:32.945Z,12.53
2023-02-12T03:44:09.265Z,12.30
2023-02-12T03:46:44.099Z,13.80
2023-02-12T03:49:20.995Z,12.17
2023-02-12T03:51:49.539Z,11.60
2023-02-12T03:54:20.857Z,12.53
2023-02-12T03:56:55.946Z,13.50
2023-02-12T03:59:26.460Z,12.63
2023-02-12T04:01:56.804Z,13.87
2023-02-12T04:04:28.732Z,12.83
2023-02-12T04:06:58.215Z,13.17
2023-02-12T04:09:28.655Z,13.40
2023-02-12T04:12:10.524Z,12.47
2023-02-12T04:14:47.319Z,12.93
2023-02-12T04:17:23.121Z,12.27
2023-02-12T04:20:03.995Z,13.00
2023-02-12T04:22:45.754Z,13.50
2023-02-12T04:25:30.561Z,12.37
2023-02-12T04:28:06.263Z,12.90
2023-02-12T04:30:38.750Z,13.43
2023-02-12T04:33:11.761Z,12.87
2023-02-12T04:35:49.700Z,14.13
2023-02-12T04:38:22.401Z,13.10
2023-02-12T04:40:52.217Z,13.20
2023-02-12T04:43:28.955Z,14.27
2023-02-12T04:45:57.733Z,12.67
2023-02-12T04:48:26.490Z,13.27
2023-02-12T04:50:56.289Z,12.70
2023-02-12T04:53:24.850Z,12.30
2023-02-12T04:55:53.574Z,12.87
2023-02-12T04:58:22.267Z,12.80
2023-02-12T05:00:50.716Z,11.63
2023-02-12T05:03:19.207Z,13.00
2023-02-12T05:05:47.655Z,12.03
2023-02-12T05:08:19.664Z,11.50
2023-02-12T05:10:48.173Z,12.37
2023-02-12T05:13:16.657Z,11.87
2023-02-12T05:15:45.162Z,12.20
2023-02-12T05:18:13.659Z,12.00
2023-02-12T05:20:42.061Z,12.23
2023-02-12T05:23:10.513Z,11.33
2023-02-12T05:25:40.306Z,12.87
2023-02-12T05:28:08.791Z,12.47
2023-02-12T05:30:37.494Z,12.17
2023-02-12T05:33:05.986Z,13.20
2023-02-12T05:35:35.891Z,12.03
2023-02-12T05:38:04.408Z,10.87
2023-02-12T05:40:32.921Z,11.13
2023-02-12T05:43:03.025Z,10.87
2023-02-12T05:45:31.418Z,10.30
2023-02-12T05:47:59.964Z,12.33
2023-02-12T05:50:28.422Z,10.63
2023-02-12T05:53:01.664Z,11.27
2023-02-12T05:55:30.212Z,12.27
2023-02-12T05:57:58.646Z,11.80
2023-02-12T06:00:28.515Z,10.87
2023-02-12T06:02:57.091Z,11.10
2023-02-12T06:05:25.646Z,10.97
2023-02-12T06:07:54.207Z,11.33
2023-02-12T06:10:22.726Z,11.80
2023-02-12T06:12:55.364Z,11.07
2023-02-12T06:15:23.843Z,10.57
2023-02-12T06:17:54.138Z,10.77
2023-02-12T06:20:22.597Z,11.43
2023-02-12T06:22:51.028Z,11.33
2023-02-12T06:25:19.578Z,12.00
2023-02-12T06:27:48.100Z,11.23
2023-02-12T06:30:17.178Z,12.17
2023-02-12T06:32:45.656Z,11.23
2023-02-12T06:35:15.567Z,11.10
2023-02-12T06:37:44.014Z,10.97
2023-02-12T06:40:13.154Z,10.17
2023-02-12T06:42:41.773Z,11.47
2023-02-12T06:45:10.690Z,11.10
2023-02-12T06:47:39.203Z,10.83
2023-02-12T06:50:08.780Z,10.87
2023-02-12T06:52:38.597Z,11.07
2023-02-12T06:55:07.560Z,10.53
2023-02-12T06:57:36.109Z,11.13
2023-02-12T07:00:05.190Z,10.57
2023-02-12T07:02:33.671Z,10.67
2023-02-12T07:05:02.221Z,11.07
2023-02-12T07:07:30.716Z,10.67
2023-02-12T07:10:00.679Z,12.00
2023-02-12T07:12:29.189Z,11.00
2023-02-12T07:14:57.594Z,10.70
2023-02-12T07:17:26.121Z,9.70
2023-02-12T07:19:54.517Z,10.67
2023-02-12T07:22:23.234Z,11.90
2023-02-12T07:24:51.951Z,11.77
2023-02-12T07:27:21.726Z,10.07
2023-02-12T07:29:50.261Z,12.87
2023-02-12T07:32:18.727Z,10.50
2023-02-12T07:34:48.193Z,11.17
2023-02-12T07:37:16.885Z,10.50
2023-02-12T07:39:45.314Z,10.77
2023-02-12T07:42:15.051Z,11.20
2023-02-12T07:44:51.359Z,11.53
2023-02-12T07:47:19.806Z,10.73
2023-02-12T07:49:48.391Z,11.23
2023-02-12T07:52:16.803Z,10.97
2023-02-12T07:54:45.262Z,11.30
2023-02-12T07:57:13.709Z,10.33
2023-02-12T07:59:42.186Z,11.57
2023-02-12T08:02:12.008Z,11.40
2023-02-12T08:04:40.608Z,12.43
2023-02-12T08:07:09.099Z,11.27
2023-02-12T08:09:37.565Z,11.37
2023-02-12T08:12:06.439Z,11.47
2023-02-12T08:14:34.884Z,12.20
2023-02-12T08:17:03.457Z,11.57
2023-02-12T08:19:33.257Z,12.27
2023-02-12T08:22:03.041Z,10.13
2023-02-12T08:24:31.821Z,12.00
2023-02-12T08:27:00.397Z,12.23
2023-02-12T08:29:30.862Z,11.53
2023-02-12T08:32:00.852Z,12.67
2023-02-12T08:34:31.842Z,10.40
2023-02-12T08:37:02.362Z,11.57
2023-02-12T08:39:31.704Z,12.40
2023-02-12T08:42:01.490Z,10.83
2023-02-12T08:44:30.433Z,11.70
2023-02-12T08:46:58.969Z,11.23
2023-02-12T08:49:29.351Z,11.17
2023-02-12T08:51:59.719Z,11.40
2023-02-12T08:54:31.011Z,11.17
2023-02-12T08:57:00.990Z,11.37
2023-02-12T08:59:30.005Z,12.07
2023-02-12T09:01:58.541Z,13.97
2023-02-12T09:04:28.730Z,13.83
2023-02-12T09:06:57.675Z,14.47
2023-02-12T09:09:26.149Z,15.13
2023-02-12T09:11:55.985Z,15.37
2023-02-12T09:14:25.281Z,21.30
2023-02-12T09:16:54.112Z,21.43
2023-02-12T09:19:22.874Z,20.37
2023-02-12T09:21:56.252Z,17.67
2023-02-12T09:24:27.406Z,17.37
2023-02-12T09:26:57.375Z,18.57
2023-02-12T09:29:25.872Z,18.13
2023-02-12T09:31:54.665Z,16.63
2023-02-12T09:34:23.227Z,16.53
2023-02-12T09:36:51.669Z,15.30
2023-02-12T09:39:20.181Z,15.90
2023-02-12T09:42:24.463Z,14.50
2023-02-12T09:44:59.716Z,14.57
2023-02-12T09:47:32.105Z,13.43
2023-02-12T09:50:28.015Z,13.83
2023-02-12T09:52:59.193Z,13.73
2023-02-12T09:55:30.885Z,13.23
2023-02-12T09:58:01.826Z,13.40
2023-02-12T10:00:32.932Z,12.87
2023-02-12T10:03:05.497Z,12.83
2023-02-12T10:05:39.619Z,12.70
2023-02-12T10:08:24.946Z,12.13
2023-02-12T10:11:01.284Z,13.57
2023-02-12T10:13:40.724Z,13.23
2023-02-12T10:16:22.921Z,12.73
2023-02-12T10:19:06.944Z,12.93
2023-02-12T10:21:48.878Z,13.93
2023-02-12T10:24:35.904Z,14.07
2023-02-12T10:27:10.854Z,12.80
2023-02-12T10:29:42.352Z,14.77
2023-02-12T10:32:24.686Z,13.50
2023-02-12T10:34:54.776Z,12.57
2023-02-12T10:37:29.399Z,12.10
2023-02-12T10:40:02.714Z,13.60
2023-02-12T10:42:39.347Z,12.73
2023-02-12T10:45:13.609Z,13.13
2023-02-12T10:47:44.895Z,12.60
2023-02-12T10:50:23.153Z,12.17
2023-02-12T10:52:55.561Z,12.13
2023-02-12T10:55:29.661Z,13.43
2023-02-12T10:57:59.187Z,13.13
2023-02-12T11:00:31.498Z,12.67
2023-02-12T11:03:07.921Z,12.60
2023-02-12T11:05:38.599Z,11.53
2023-02-12T11:08:07.900Z,12.90
2023-02-12T11:10:40.091Z,13.23
2023-02-12T11:13:23.900Z,11.70
2023-02-12T11:15:52.701Z,12.40
2023-02-12T11:18:26.388Z,12.30
2023-02-12T11:20:58.324Z,12.83
2023-02-12T11:23:29.435Z,13.20
2023-02-12T11:26:00.856Z,12.43
2023-02-12T11:28:30.753Z,12.13
2023-02-12T11:31:02.010Z,11.07
2023-02-12T11:33:34.786Z,11.63
2023-02-12T11:36:07.574Z,11.63
2023-02-12T11:38:40.254Z,11.13
2023-02-12T11:41:22.933Z,11.70
2023-02-12T11:43:52.203Z,11.87
2023-02-12T11:46:24.715Z,10.87
2023-02-12T11:48:56.702Z,11.63
2023-02-12T11:51:29.246Z,11.33
2023-02-12T11:54:01.019Z,11.03
2023-02-12T11:56:43.632Z,10.93
2023-02-12T11:59:22.372Z,10.70
2023-02-12T12:01:55.062Z,12.30
2023-02-12T12:04:28.720Z,11.30
2023-02-12T12:07:01.143Z,11.10
2023-02-12T12:09:36.502Z,11.23
2023-02-12T12:12:13.556Z,11.20
2023-02-12T12:15:04.961Z,11.90
2023-02-12T12:17:59.629Z,12.40
2023-02-12T12:20:33.889Z,10.50
2023-02-12T12:23:06.460Z,11.00
2023-02-12T12:25:42.964Z,12.23
2023-02-12T12:28:31.127Z,11.37
2023-02-12T12:31:05.450Z,12.03
2023-02-12T12:33:45.117Z,11.33
2023-02-12T12:36:51.585Z,11.73
2023-02-12T12:39:29.607Z,11.47
2023-02-12T12:42:23.304Z,10.30
2023-02-12T12:45:08.545Z,11.20
2023-02-12T12:47:49.662Z,10.10
2023-02-12T12:50:46.664Z,9.77
2023-02-12T12:53:25.661Z,9.80
2023-02-12T12:56:11.616Z,11.37
2023-02-12T12:59:03.865Z,10.57
2023-02-12T13:01:49.159Z,8.77
2023-02-12T13:04:42.229Z,9.50
2023-02-12T13:07:38.202Z,9.97
2023-02-12T13:10:20.649Z,10.07
2023-02-12T13:13:10.322Z,10.73
2023-02-12T13:15:45.538Z,9.10
2023-02-12T13:18:29.762Z,11.17
2023-02-12T13:21:04.697Z,9.80
2023-02-12T13:23:43.950Z,10.23
2023-02-12T13:26:18.315Z,9.67
2023-02-12T13:28:53.310Z,9.23
2023-02-12T13:31:33.104Z,9.07
2023-02-12T13:34:05.842Z,8.90
2023-02-12T13:36:37.150Z,10.07
2023-02-12T13:39:13.886Z,14.17
2023-02-12T13:41:47.875Z,10.30
2023-02-12T13:44:28.020Z,9.23
2023-02-12T13:47:01.370Z,8.87
2023-02-12T13:49:40.762Z,8.67
2023-02-12T13:52:14.905Z,8.87
2023-02-12T13:54:54.236Z,8.93
2023-02-12T13:57:23.200Z,9.63
2023-02-12T13:59:54.761Z,7.60
2023-02-12T14:02:49.284Z,8.13
2023-02-12T14:05:31.125Z,8.43
2023-02-12T14:08:03.501Z,8.17
2023-02-12T14:10:34.625Z,8.40
2023-02-12T14:13:22.064Z,8.50
2023-02-12T14:15:54.354Z,8.40
2023-02-12T14:18:34.981Z,8.07
2023-02-12T14:21:44.008Z,8.37
2023-02-12T14:24:51.889Z,8.00
2023-02-12T14:27:43.207Z,7.70
2023-02-12T14:30:31.623Z,8.00
2023-02-12T14:33:32.661Z,8.67
2023-02-12T14:36:17.723Z,9.83
2023-02-12T14:39:02.405Z,9.13
2023-02-12T14:41:38.978Z,8.87
2023-02-12T14:44:44.446Z,9.23
2023-02-12T14:47:29.220Z,9.73
2023-02-12T14:50:03.065Z,8.93
2023-02-12T14:52:39.353Z,9.27
2023-02-12T14:55:19.322Z,10.20
2023-02-12T14:57:48.372Z,8.67
2023-02-12T15:00:27.638Z,8.90
2023-02-12T15:03:00.430Z,7.97
2023-02-12T15:05:32.425Z,7.60
2023-02-12T15:08:06.276Z,7.33
2023-02-12T15:10:40.930Z,7.60
2023-02-12T15:13:20.818Z,10.13
2023-02-12T15:15:54.328Z,8.30
2023-02-12T15:18:30.593Z,8.30
2023-02-12T15:21:05.474Z,8.00
2023-02-12T15:23:37.897Z,8.33
2023-02-12T15:26:08.007Z,9.03
2023-02-12T15:28:38.207Z,7.77
2023-02-12T15:31:10.752Z,8.07
2023-02-12T15:33:45.780Z,8.07
2023-02-12T15:36:18.592Z,8.60
2023-02-12T15:38:51.415Z,7.77
2023-02-12T15:41:29.550Z,8.30
2023-02-12T15:43:58.417Z,7.63
2023-02-12T15:46:26.938Z,8.30
2023-02-12T15:48:56.262Z,8.00
2023-02-12T15:51:31.190Z,8.77
2023-02-12T15:54:01.944Z,8.00
2023-02-12T15:56:31.936Z,8.50
2023-02-12T15:59:01.895Z,7.53
2023-02-12T16:01:32.653Z,9.27
2023-02-12T16:04:03.445Z,9.17
2023-02-12T16:06:35.193Z,8.70
2023-02-12T16:09:09.005Z,10.03
2023-02-12T16:11:38.532Z,8.90
2023-02-12T16:14:19.817Z,9.07
2023-02-12T16:16:50.529Z,7.63
2023-02-12T16:19:22.244Z,7.43
2023-02-12T16:21:54.644Z,8.20
2023-02-12T16:24:29.626Z,8.83
2023-02-12T16:26:59.656Z,8.80
2023-02-12T16:29:30.837Z,8.73
2023-02-12T16:32:02.999Z,11.33
2023-02-12T16:34:35.580Z,9.67
2023-02-12T16:37:05.040Z,10.17
2023-02-12T16:40:18.523Z,8.93
2023-02-12T16:43:01.867Z,10.03
2023-02-12T16:45:39.061Z,9.47
2023-02-12T16:48:20.601Z,10.27
2023-02-12T16:50:52.050Z,10.00
2023-02-12T16:53:33.477Z,10.00
2023-02-12T16:56:05.905Z,10.63
2023-02-12T16:58:34.376Z,10.47
2023-02-12T17:01:06.418Z,10.57
2023-02-12T17:03:35.624Z,8.17
2023-02-12T17:06:04.153Z,8.70
2023-02-12T17:08:32.654Z,8.07
2023-02-12T17:11:01.135Z,8.13
2023-02-12T17:13:31.023Z,8.00
2023-02-12T17:16:02.050Z,8.43
2023-02-12T17:18:32.753Z,8.57
2023-02-12T17:21:04.327Z,8.40
2023-02-12T17:23:33.175Z,8.27
2023-02-12T17:26:01.897Z,8.63
2023-02-12T17:28:32.314Z,7.77
2023-02-12T17:31:02.628Z,9.00
2023-02-12T17:33:31.159Z,10.20
2023-02-12T17:35:59.998Z,10.30
2023-02-12T17:38:28.649Z,7.87
2023-02-12T17:40:57.810Z,8.60
2023-02-12T17:43:26.585Z,8.33
2023-02-12T17:45:56.386Z,8.50
2023-02-12T17:48:24.994Z,8.17
2023-02-12T17:50:58.051Z,8.93
2023-02-12T17:53:26.717Z,8.03
2023-02-12T17:55:55.198Z,7.80
2023-02-12T17:58:23.696Z,8.13
2023-02-12T18:00:52.197Z,9.27
2023-02-12T18:03:22.032Z,9.17
2023-02-12T18:05:50.498Z,7.83
2023-02-12T18:08:19.046Z,7.93
2023-02-12T18:10:47.442Z,7.03
2023-02-12T18:13:15.937Z,9.07
2023-02-12T18:15:44.386Z,8.40
2023-02-12T18:18:14.139Z,8.20
2023-02-12T18:20:44.162Z,9.37
2023-02-12T18:23:13.096Z,8.03
2023-02-12T18:25:42.911Z,7.63
2023-02-12T18:28:13.004Z,8.20
2023-02-12T18:30:43.208Z,9.03
2023-02-12T18:33:13.536Z,8.93
2023-02-12T18:35:43.377Z,11.10
2023-02-12T18:38:11.809Z,9.77
2023-02-12T18:40:41.182Z,8.90
2023-02-12T18:43:09.665Z,10.10
2023-02-12T18:45:40.234Z,8.23
2023-02-12T18:48:09.289Z,9.77
2023-02-12T18:50:38.287Z,9.10
2023-02-12T18:53:08.164Z,8.87
2023-02-12T18:55:38.855Z,9.30
2023-02-12T18:58:07.333Z,10.02
2023-02-12T19:00:36.282Z,9.70
2023-02-12T19:03:04.822Z,8.13
2023-02-12T19:05:33.271Z,8.87
2023-02-12T19:08:01.897Z,9.77
2023-02-12T19:10:31.716Z,10.43
2023-02-12T19:13:00.955Z,9.93
2023-02-12T19:15:29.483Z,10.53
2023-02-12T19:17:58.061Z,10.70
2023-02-12T19:20:26.545Z,10.73
2023-02-12T19:22:54.965Z,11.20
2023-02-12T19:25:23.503Z,11.97
2023-02-12T19:27:53.321Z,11.70
2023-02-12T19:30:21.885Z,9.63
2023-02-12T19:32:50.378Z,9.80
2023-02-12T19:35:19.043Z,10.33
2023-02-12T19:37:47.497Z,8.70
2023-02-12T19:40:16.147Z,10.23
2023-02-12T19:42:44.612Z,10.40
2023-02-12T19:45:14.434Z,9.00
2023-02-12T19:47:42.901Z,10.27
2023-02-12T19:50:11.766Z,10.43
2023-02-12T19:52:41.328Z,10.77
2023-02-12T19:55:09.957Z,10.90
2023-02-12T19:57:38.584Z,9.80
2023-02-12T20:00:08.487Z,12.07
2023-02-12T20:02:38.372Z,11.43
2023-02-12T20:05:07.628Z,12.00
2023-02-12T20:07:36.091Z,12.60
2023-02-12T20:10:04.652Z,11.90
2023-02-12T20:12:33.101Z,44.97
2023-02-12T20:15:02.608Z,18.57
2023-02-12T20:17:31.115Z,13.90
2023-02-12T20:20:00.871Z,14.17
2023-02-12T20:22:29.317Z,17.50
2023-02-12T20:24:57.820Z,17.70
2023-02-12T20:27:26.302Z,19.23
2023-02-12T20:29:54.965Z,17.67
2023-02-12T20:32:23.475Z,15.77
2023-02-12T20:34:52.433Z,15.20
2023-02-12T20:37:22.220Z,14.10
2023-02-12T20:39:50.779Z,15.80
2023-02-12T20:42:19.257Z,16.90
2023-02-12T20:44:47.725Z,18.13
2023-02-12T20:47:16.154Z,17.03
2023-02-12T20:49:44.602Z,16.27
2023-02-12T20:52:13.318Z,14.97
2023-02-12T20:54:43.346Z,14.73
2023-02-12T20:57:11.843Z,14.77
2023-02-12T20:59:40.456Z,13.40
2023-02-12T21:02:09.165Z,14.10
2023-02-12T21:04:37.632Z,12.63
2023-02-12T21:07:06.061Z,13.17
2023-02-12T21:09:34.563Z,13.13
2023-02-12T21:12:04.675Z,14.57
2023-02-12T21:14:33.125Z,16.60
2023-02-12T21:17:01.601Z,11.67
2023-02-12T21:19:30.117Z,13.10
2023-02-12T21:21:59.079Z,14.80
2023-02-12T21:24:27.938Z,15.27
2023-02-12T21:26:56.977Z,13.40
2023-02-12T21:29:29.193Z,15.27
2023-02-12T21:31:57.735Z,13.17
2023-02-12T21:34:26.413Z,14.60
2023-02-12T21:36:56.499Z,12.80
2023-02-12T21:39:27.458Z,15.40
2023-02-12T21:41:57.570Z,14.20
2023-02-12T21:44:27.815Z,13.43
2023-02-12T21:46:56.945Z,14.27
2023-02-12T21:49:27.487Z,14.10
2023-02-12T21:51:57.652Z,12.10
2023-02-12T21:54:26.655Z,13.90
2023-02-12T21:56:55.429Z,13.47
2023-02-12T21:59:24.757Z,14.80
2023-02-12T22:01:58.323Z,14.13
2023-02-12T22:04:27.115Z,14.57
2023-02-12T22:06:56.492Z,15.63
2023-02-12T22:09:25.120Z,14.20
2023-02-12T22:11:53.649Z,15.13
2023-02-12T22:14:23.047Z,16.40
2023-02-12T22:16:51.984Z,16.40
2023-02-12T22:19:21.934Z,14.20
2023-02-12T22:21:52.366Z,13.40
2023-02-12T22:24:21.729Z,13.93
2023-02-12T22:26:50.497Z,12.43
2023-02-12T22:29:19.473Z,12.60
2023-02-12T22:31:48.714Z,13.20
2023-02-12T22:34:19.750Z,14.20
2023-02-12T22:36:49.873Z,14.83
2023-02-12T22:39:19.402Z,15.27
2023-02-12T22:41:48.411Z,13.60
2023-02-12T22:44:20.748Z,14.23
2023-02-12T22:46:50.869Z,13.33
2023-02-12T22:49:19.680Z,13.13
2023-02-12T22:51:49.546Z,12.83
2023-02-12T22:54:19.438Z,14.13
2023-02-12T22:56:51.725Z,13.27
2023-02-12T22:59:20.215Z,14.57
2023-02-12T23:01:48.701Z,14.00
2023-02-12T23:04:18.659Z,14.13
2023-02-12T23:06:47.621Z,14.80
2023-02-12T23:09:19.110Z,14.37
2023-02-12T23:11:48.662Z,13.00
2023-02-12T23:14:17.455Z,13.33
2023-02-12T23:16:46.479Z,13.50
2023-02-12T23:19:15.444Z,14.17
2023-02-12T23:21:44.344Z,13.23
2023-02-12T23:24:14.730Z,13.60
2023-02-12T23:26:44.633Z,13.43
2023-02-12T23:29:13.368Z,15.17
2023-02-12T23:31:41.936Z,13.87
2023-02-12T23:34:10.568Z,14.20
2023-02-12T23:36:39.013Z,13.03
2023-02-12T23:39:09.343Z,13.03
2023-02-12T23:41:37.793Z,12.57
2023-02-12T23:44:07.773Z,11.70
2023-02-12T23:46:36.284Z,12.60
2023-02-12T23:49:05.394Z,13.50
2023-02-12T23:51:34.104Z,12.50
2023-02-12T23:54:02.832Z,14.33
2023-02-12T23:56:31.355Z,12.93
2023-02-12T23:58:59.838Z,12.50
